Time;durP1;ratioP1;P1;durP2;ratioP2;P2;SDS_P1;SDS_P2;PMS_P1;PMS_P2;Temp;Humidity;BMP_temperature;BMP_pressure;BME280_temperature;BME280_humidity;BME280_pressure;Samples;Min_cycle;Max_cycle;Signal;HPM_P1;HPM_P2
2022/03/01 00:01:26;;;;;;;12.20;8.15;;;;;;;;;;5033104;28;20521;-88
2022/03/01 00:03:52;;;;;;;12.55;7.85;;;;;;;3.13;71.95;67127.91;5036094;28;20049;-87
2022/03/01 00:06:17;;;;;;;11.50;7.72;;;;;;;3.08;72.52;67119.06;5065697;28;20380;-85
2022/03/01 00:08:42;;;;;;;11.93;7.72;;;;;;;;;;5031468;28;20044;-86
2022/03/01 00:11:08;;;;;;;13.02;8.18;;;;;;;3.03;74.31;67116.09;5066571;28;20132;-87
2022/03/01 00:13:35;;;;;;;13.65;8.20;;;;;;;2.94;72.83;67107.06;5048245;28;20497;-86
2022/03/01 00:16:01;;;;;;;11.95;7.55;;;;;;;;;;5040163;28;20430;-85
2022/03/01 00:18:27;;;;;;;13.75;8.77;;;;;;;;;;5039711;28;20060;-87
2022/03/01 00:20:52;;;;;;;11.93;8.35;;;;;;;2.86;73.13;67095.41;5035537;28;20494;-86
2022/03/01 00:23:23;;;;;;;12.60;7.97;;;;;;;2.88;71.79;67099.75;5038118;28;20045;-87
2022/03/01 00:25:48;;;;;;;14.25;9.30;;;;;;;2.90;72.60;67099.34;5069953;28;20037;-86
2022/03/01 00:28:14;;;;;;;13.90;8.45;;;;;;;2.90;71.88;67105.16;5048097;28;20476;-86
2022/03/01 00:30:39;;;;;;;13.15;8.80;;;;;;;2.90;73.91;67101.97;5030161;28;20095;-86
2022/03/01 00:33:05;;;;;;;15.52;8.63;;;;;;;2.91;72.71;67101.06;5030913;28;20041;-85
2022/03/01 00:35:31;;;;;;;15.07;8.95;;;;;;;;;;5070665;28;20043;-85
2022/03/01 00:37:57;;;;;;;12.93;9.18;;;;;;;2.93;74.03;67105.94;5036460;28;21254;-85
2022/03/01 00:40:23;;;;;;;12.93;8.13;;;;;;;2.94;71.46;67103.88;5067935;28;20049;-85
2022/03/01 00:42:48;;;;;;;12.63;8.32;;;;;;;2.97;72.42;67102.00;5065449;28;20043;-85
2022/03/01 00:45:13;;;;;;;14.07;8.90;;;;;;;;;;5039488;28;20051;-85
2022/03/01 00:47:39;;;;;;;11.25;8.15;;;;;;;3.01;71.17;67114.38;5038101;28;20069;-86
2022/03/01 00:50:05;;;;;;;12.50;8.02;;;;;;;3.01;71.56;67113.81;5035420;28;20052;-86
2022/03/01 00:52:31;;;;;;;14.57;9.10;;;;;;;;;;5037177;28;20374;-86
2022/03/01 00:54:56;;;;;;;13.30;9.18;;;;;;;2.99;74.77;67114.19;5034918;28;20081;-85
2022/03/01 00:57:22;;;;;;;13.43;8.82;;;;;;;2.96;74.13;67110.81;5015004;28;20140;-86
2022/03/01 00:59:47;;;;;;;13.63;8.63;;;;;;;2.92;73.01;67104.81;5043739;28;20045;-88
2022/03/01 01:02:12;;;;;;;13.85;9.32;;;;;;;;;;5034191;28;20705;-85
2022/03/01 01:04:38;;;;;;;14.52;9.20;;;;;;;2.83;71.84;67094.09;5037319;28;20068;-86
2022/03/01 01:07:04;;;;;;;11.38;7.53;;;;;;;2.80;70.85;67091.28;5028242;28;20080;-87
2022/03/01 01:09:29;;;;;;;12.13;8.18;;;;;;;2.83;73.06;67094.66;5064450;28;20180;-86
2022/03/01 01:11:55;;;;;;;14.40;9.25;;;;;;;2.85;74.96;67089.03;5040463;28;20417;-86
2022/03/01 01:14:20;;;;;;;16.35;9.20;;;;;;;;;;5038120;28;20754;-86
2022/03/01 01:16:46;;;;;;;13.07;8.30;;;;;;;2.75;74.46;67085.63;5044098;28;20056;-86
2022/03/01 01:19:13;;;;;;;13.07;8.13;;;;;;;2.72;74.60;67082.81;5048809;28;20049;-85
2022/03/01 01:24:23;;;;;;;15.35;9.10;;;;;;;2.73;74.52;67088.63;5034439;28;20206;-85
2022/03/01 01:26:48;;;;;;;15.38;10.02;;;;;;;2.70;75.18;67080.00;5065195;28;20037;-85
2022/03/01 01:29:14;;;;;;;15.98;8.77;;;;;;;2.68;72.88;67077.75;5064060;28;20063;-85
2022/03/01 01:31:39;;;;;;;14.60;10.60;;;;;;;2.70;75.65;67077.38;5065941;28;20428;-86
2022/03/01 01:34:04;;;;;;;15.70;9.27;;;;;;;2.62;73.28;67071.00;5065684;28;20478;-85
2022/03/01 01:36:30;;;;;;;15.43;8.77;;;;;;;2.66;74.85;67078.13;5058158;28;20609;-86
2022/03/01 01:38:57;;;;;;;15.43;9.63;;;;;;;2.67;75.21;67076.63;5035699;28;20401;-85
2022/03/01 01:41:23;;;;;;;17.63;10.00;;;;;;;2.65;76.15;67077.00;5026279;28;20607;-85
2022/03/01 01:43:49;;;;;;;15.25;8.32;;;;;;;2.58;72.82;67063.84;5029652;28;20037;-85
2022/03/01 01:46:14;;;;;;;17.80;9.48;;;;;;;2.51;76.32;67056.53;5035285;28;20519;-85
2022/03/01 01:48:39;;;;;;;14.32;9.40;;;;;;;2.52;75.53;67057.09;5068463;28;20055;-85
2022/03/01 01:51:06;;;;;;;14.63;9.45;;;;;;;2.48;75.68;67055.78;5031705;28;20395;-85
2022/03/01 01:53:31;;;;;;;16.10;9.80;;;;;;;2.35;76.44;67044.31;5057571;28;20048;-86
2022/03/01 01:55:57;;;;;;;14.40;9.40;;;;;;;2.34;75.67;67043.19;5037487;28;20049;-86
2022/03/01 01:58:22;;;;;;;15.40;9.57;;;;;;;2.39;76.92;67043.56;5068454;28;20183;-85
2022/03/01 02:00:48;;;;;;;16.33;10.00;;;;;;;2.29;77.49;67032.28;5058136;28;20489;-86
2022/03/01 02:03:13;;;;;;;16.08;10.25;;;;;;;2.29;79.07;67034.38;5049895;28;20121;-85
2022/03/01 02:05:39;;;;;;;14.27;10.00;;;;;;;2.24;78.46;67029.28;5036244;28;20191;-85
2022/03/01 02:08:04;;;;;;;14.50;9.90;;;;;;;;;;5036262;28;20145;-85
2022/03/01 02:10:29;;;;;;;13.90;10.25;;;;;;;2.19;78.98;67021.03;5026042;28;20051;-86
2022/03/01 02:12:56;;;;;;;16.17;10.00;;;;;;;2.17;77.06;67021.97;5038794;28;20060;-85
2022/03/01 02:15:23;;;;;;;16.35;9.88;;;;;;;2.16;77.92;67018.22;5018265;28;20061;-85
2022/03/01 02:17:49;;;;;;;14.65;10.02;;;;;;;2.19;78.53;67021.03;5040852;28;20124;-85
2022/03/01 02:20:19;;;;;;;15.95;10.32;;;;;;;2.12;78.96;67013.16;5066431;28;20045;-86
2022/03/01 02:22:47;;;;;;;16.27;8.95;;;;;;;2.08;78.18;67011.84;5034799;28;20049;-85
2022/03/01 02:25:13;;;;;;;15.45;10.27;;;;;;;2.09;79.84;67012.38;5043799;28;20509;-85
2022/03/01 02:27:39;;;;;;;14.32;9.43;;;;;;;2.02;80.09;67007.69;5049813;28;20517;-85
2022/03/01 02:30:07;;;;;;;16.88;9.65;;;;;;;1.95;79.88;67000.38;5064901;28;20049;-85
2022/03/01 02:32:35;;;;;;;16.52;9.75;;;;;;;1.75;79.04;66972.59;5044625;28;20072;-85
2022/03/01 02:35:00;;;;;;;19.65;11.45;;;;;;;1.76;80.92;66976.91;5063521;28;20045;-85
2022/03/01 02:37:26;;;;;;;15.85;10.82;;;;;;;1.65;82.00;66961.34;5037036;28;20037;-86
2022/03/01 02:39:53;;;;;;;16.30;10.65;;;;;;;1.58;81.89;66954.00;5048288;28;20634;-85
2022/03/01 02:42:20;;;;;;;17.05;11.32;;;;;;;1.50;81.28;66950.81;5037845;28;20053;-85
2022/03/01 02:44:46;;;;;;;16.35;11.48;;;;;;;1.55;83.21;66956.47;5048407;28;20037;-85
2022/03/01 02:47:12;;;;;;;18.08;11.07;;;;;;;1.73;82.08;66976.16;5068651;28;20132;-85
2022/03/01 02:49:38;;;;;;;18.60;10.27;;;;;;;1.76;81.23;66981.59;5035701;28;20049;-85
2022/03/01 02:52:04;;;;;;;13.80;9.57;;;;;;;1.78;80.40;66981.22;5039893;28;20046;-85
2022/03/01 02:54:31;;;;;;;17.33;10.80;;;;;;;1.75;82.63;66972.59;5063481;28;20045;-85
2022/03/01 02:56:59;;;;;;;16.10;9.85;;;;;;;;;;5051339;28;20683;-84
2022/03/01 02:59:25;;;;;;;15.15;10.20;;;;;;;1.67;81.40;66968.81;5038658;28;20456;-85
2022/03/01 03:01:50;;;;;;;16.35;10.13;;;;;;;1.65;82.64;66966.59;5032214;28;20032;-85
2022/03/01 03:04:16;;;;;;;16.20;9.60;;;;;;;1.69;82.05;66965.84;5049339;28;20045;-86
2022/03/01 03:06:42;;;;;;;15.77;10.25;;;;;;;1.70;81.54;66966.97;5048646;28;20040;-85
2022/03/01 03:09:07;;;;;;;15.68;9.90;;;;;;;1.69;81.56;66971.09;5035732;28;20050;-86
2022/03/01 03:11:32;;;;;;;18.25;10.98;;;;;;;1.74;81.61;66972.03;5032180;28;20049;-86
2022/03/01 03:13:58;;;;;;;15.88;9.27;;;;;;;1.88;80.52;66992.50;5065420;28;20069;-87
2022/03/01 03:16:27;;;;;;;14.57;9.45;;;;;;;2.03;79.74;67003.56;5053712;28;20044;-87
2022/03/01 03:18:52;;;;;;;12.02;7.78;;;;;;;2.21;76.04;67023.28;5062942;28;20118;-86
2022/03/01 03:21:18;;;;;;;13.25;8.30;;;;;;;2.26;75.90;67031.53;5018974;28;20057;-85
2022/03/01 03:23:44;;;;;;;14.57;9.25;;;;;;;2.27;76.29;67032.66;5050846;28;20060;-85
2022/03/01 03:26:10;;;;;;;18.13;9.52;;;;;;;2.23;76.68;67025.53;5037015;28;20041;-85
2022/03/01 03:28:36;;;;;;;17.25;9.82;;;;;;;2.05;79.03;67007.91;5056472;28;20124;-85
2022/03/01 03:31:01;;;;;;;14.15;9.25;;;;;;;;;;5042435;28;20132;-85
2022/03/01 03:33:29;;;;;;;16.23;10.30;;;;;;;1.98;80.85;67001.13;5041915;28;20110;-85
2022/03/01 03:35:56;;;;;;;17.77;11.05;;;;;;;1.98;80.68;67003.75;5032411;28;20045;-84
2022/03/01 03:38:24;;;;;;;16.05;9.80;;;;;;;1.89;79.30;66990.97;5050231;28;20099;-84
2022/03/01 03:40:50;;;;;;;13.30;9.43;;;;;;;1.87;79.66;66988.75;5048249;28;20144;-85
2022/03/01 03:43:16;;;;;;;15.48;9.82;;;;;;;1.80;80.89;66981.41;5048711;28;20136;-86
2022/03/01 03:45:41;;;;;;;16.77;9.60;;;;;;;1.75;80.44;66978.41;5035641;28;20048;-84
2022/03/01 03:48:09;;;;;;;16.77;10.05;;;;;;;1.74;81.62;66976.72;5026078;28;20041;-85
2022/03/01 03:50:34;;;;;;;16.58;11.18;;;;;;;1.75;82.09;66973.16;5023058;28;20040;-86
2022/03/01 03:53:00;;;;;;;16.63;10.43;;;;;;;1.51;82.29;66949.31;5043730;28;20068;-85
2022/03/01 03:55:25;;;;;;;17.98;12.13;;;;;;;1.46;84.41;66941.06;5051697;28;20029;-86
2022/03/01 03:57:52;;;;;;;16.65;10.15;;;;;;;1.42;82.88;66936.56;5038281;28;20133;-85
2022/03/01 04:00:18;;;;;;;17.10;10.40;;;;;;;1.33;85.06;66926.44;5030735;28;20318;-85
2022/03/01 04:02:45;;;;;;;17.20;10.85;;;;;;;1.29;84.97;66922.47;5038359;28;20045;-85
2022/03/01 04:05:15;;;;;;;19.80;10.35;;;;;;;1.24;85.59;66916.31;5035879;28;20037;-85
2022/03/01 04:07:42;;;;;;;18.33;11.63;;;;;;;1.09;86.90;66900.56;5032023;28;20042;-87
2022/03/01 04:10:08;;;;;;;17.15;10.80;;;;;;;1.05;86.81;66903.91;5058855;28;20517;-83
2022/03/01 04:12:35;;;;;;;17.27;10.98;;;;;;;0.87;87.08;66876.34;5039798;28;20070;-84
2022/03/01 04:15:00;;;;;;;21.90;11.93;;;;;;;0.82;87.98;66870.16;5032219;28;20049;-85
2022/03/01 04:17:27;;;;;;;22.02;13.05;;;;;;;0.89;88.89;66878.03;5034762;28;20041;-87
2022/03/01 04:19:53;;;;;;;27.10;15.75;;;;;;;0.95;88.20;66884.22;5040658;28;21071;-85
2022/03/01 04:22:18;;;;;;;22.80;14.38;;;;;;;0.94;87.71;66888.34;5023846;28;20053;-84
2022/03/01 04:24:45;;;;;;;24.88;14.30;;;;;;;0.97;87.29;66889.66;5060719;28;20182;-85
2022/03/01 04:27:11;;;;;;;24.40;13.98;;;;;;;0.86;87.51;66875.22;5047656;28;20060;-86
2022/03/01 04:29:36;;;;;;;24.70;14.00;;;;;;;0.89;88.76;66880.66;5068277;28;20041;-88
2022/03/01 04:32:04;;;;;;;23.48;14.30;;;;;;;0.88;88.92;66880.09;5031529;28;20114;-85
2022/03/01 04:34:37;;;;;;;24.17;14.20;;;;;;;0.92;88.34;66884.03;5024551;28;20105;-85
2022/03/01 04:37:03;;;;;;;24.52;14.90;;;;;;;0.94;88.71;66886.28;5061597;28;20048;-83
2022/03/01 04:39:29;;;;;;;28.20;16.27;;;;;;;0.90;88.30;66879.72;5036313;28;20545;-84
2022/03/01 04:41:55;;;;;;;27.33;15.68;;;;;;;0.89;89.28;66883.28;5051663;28;20095;-87
2022/03/01 04:44:21;;;;;;;25.15;14.00;;;;;;;0.84;86.97;66878.22;5047319;28;20398;-88
2022/03/01 04:46:47;;;;;;;25.65;13.50;;;;;;;;;;5036492;28;21770;-85
2022/03/01 04:49:14;;;;;;;22.05;13.48;;;;;;;0.77;87.45;66870.31;5044201;28;20049;-85
2022/03/01 04:51:40;;;;;;;25.70;15.07;;;;;;;0.82;89.25;66875.41;5036088;28;20037;-83
2022/03/01 04:54:06;;;;;;;22.58;14.20;;;;;;;0.91;88.96;66882.91;5040849;28;20051;-85
2022/03/01 04:56:32;;;;;;;22.20;13.07;;;;;;;0.95;87.86;66889.47;5038005;28;20045;-85
2022/03/01 04:58:58;;;;;;;20.23;12.88;;;;;;;1.03;87.85;66904.25;5055251;28;20079;-84
2022/03/01 05:01:24;;;;;;;20.48;11.77;;;;;;;0.95;86.96;66889.47;5049227;28;20052;-86
2022/03/01 05:03:49;;;;;;;20.55;13.20;;;;;;;1.02;87.96;66897.91;5045382;28;20041;-84
2022/03/01 05:06:15;;;;;;;19.45;11.90;;;;;;;1.09;87.57;66905.22;5074074;28;20116;-84
2022/03/01 05:08:43;;;;;;;18.45;12.13;;;;;;;1.09;86.58;66905.78;5044808;28;20091;-85
2022/03/01 05:11:10;;;;;;;18.33;11.38;;;;;;;1.15;86.74;66906.16;5042442;28;20076;-86
2022/03/01 05:13:35;;;;;;;18.90;11.93;;;;;;;1.20;86.27;66914.97;5044383;28;20066;-86
2022/03/01 05:16:01;;;;;;;18.58;12.45;;;;;;;1.10;85.82;66906.91;5051503;28;20370;-86
2022/03/01 05:18:28;;;;;;;19.50;11.00;;;;;;;1.11;85.39;66907.47;5027269;28;20048;-84
2022/03/01 05:20:53;;;;;;;18.58;11.38;;;;;;;1.20;86.11;66911.81;5023859;28;20123;-86
2022/03/01 05:23:19;;;;;;;17.60;11.40;;;;;;;1.24;87.20;66918.94;5036366;28;20076;-86
2022/03/01 05:25:44;;;;;;;17.77;11.05;;;;;;;1.19;87.37;66910.69;5039908;28;20516;-86
2022/03/01 05:28:12;;;;;;;17.80;12.63;;;;;;;1.20;88.36;66911.81;5053045;28;20355;-85
2022/03/01 05:30:37;;;;;;;16.40;11.75;;;;;;;1.17;88.57;66903.75;5039756;28;20113;-83
2022/03/01 05:33:03;;;;;;;18.35;11.18;;;;;;;1.06;86.72;66896.59;5033381;28;20080;-86
2022/03/01 05:35:29;;;;;;;18.35;12.23;;;;;;;;;;5048661;28;20040;-85
2022/03/01 05:38:02;;;;;;;19.65;13.20;;;;;;;1.10;88.97;66904.28;5039832;28;20124;-85
2022/03/01 05:40:30;;;;;;;18.55;12.68;;;;;;;1.08;87.94;66899.41;5064281;28;20033;-84
2022/03/01 05:42:56;;;;;;;17.65;11.18;;;;;;;1.04;87.39;66896.97;5046096;28;20063;-83
2022/03/01 05:45:22;;;;;;;17.42;10.77;;;;;;;1.15;87.86;66908.78;5049604;28;20029;-85
2022/03/01 05:47:47;;;;;;;17.25;10.63;;;;;;;;;;5042711;28;20508;-85
2022/03/01 05:50:15;;;;;;;20.38;11.05;;;;;;;1.13;87.55;66910.28;5034574;28;20048;-85
2022/03/01 05:52:57;;;;;;;19.00;11.73;;;;;;;1.18;88.38;66909.53;5028566;28;20049;-84
2022/03/01 05:55:23;;;;;;;17.23;11.70;;;;;;;;;;5037600;28;20478;-86
2022/03/01 05:57:49;;;;;;;19.85;10.95;;;;;;;1.17;85.54;66914.22;5052184;28;20046;-85
2022/03/01 06:00:16;;;;;;;19.70;11.07;;;;;;;1.23;85.07;66915.19;5069912;28;20071;-84
2022/03/01 06:02:43;;;;;;;21.13;12.40;;;;;;;1.37;86.38;66936.19;5038852;28;20061;-84
2022/03/01 06:05:11;;;;;;;18.02;11.60;;;;;;;1.32;87.47;66925.88;5041614;28;20051;-85
2022/03/01 06:07:37;;;;;;;19.65;13.00;;;;;;;1.35;87.36;66931.28;5049855;28;20041;-86
2022/03/01 06:10:04;;;;;;;21.65;13.13;;;;;;;1.32;86.87;66925.88;5046259;28;20060;-85
2022/03/01 06:12:30;;;;;;;18.95;12.18;;;;;;;1.34;87.15;66928.13;5049846;28;20049;-84
2022/03/01 06:14:55;;;;;;;18.63;11.55;;;;;;;1.33;86.19;66929.63;5043126;28;20053;-88
2022/03/01 06:17:20;;;;;;;19.85;11.70;;;;;;;1.37;84.59;66930.94;5041659;28;20405;-83
2022/03/01 06:19:52;;;;;;;17.67;11.13;;;;;;;1.42;85.92;66936.56;5053841;28;20080;-88
2022/03/01 06:22:17;;;;;;;16.52;11.68;;;;;;;1.50;85.60;66950.25;5035371;28;20076;-86
2022/03/01 06:24:43;;;;;;;16.98;11.25;;;;;;;1.53;85.62;66954.19;5056395;28;20049;-86
2022/03/01 06:27:09;;;;;;;19.67;12.18;;;;;;;1.56;85.81;66951.78;5047691;28;20037;-87
2022/03/01 06:29:37;;;;;;;18.45;9.55;;;;;;;1.53;83.35;66951.56;5028284;28;20040;-86
2022/03/01 06:32:04;;;;;;;17.83;11.40;;;;;;;1.57;84.18;66953.44;5033250;28;20092;-86
2022/03/01 06:34:30;;;;;;;19.25;11.23;;;;;;;1.63;84.22;66959.66;5050035;28;20048;-84
2022/03/01 06:36:56;;;;;;;18.45;10.75;;;;;;;1.64;82.16;66960.78;5039802;28;20045;-86
2022/03/01 06:39:23;;;;;;;17.45;10.70;;;;;;;1.65;83.82;66969.78;5055398;28;20380;-87
2022/03/01 06:41:50;;;;;;;19.08;11.95;;;;;;;1.65;84.86;66961.91;5031974;28;20045;-85
2022/03/01 06:44:18;;;;;;;17.05;9.82;;;;;;;1.65;83.77;66966.59;5056752;28;20410;-82
2022/03/01 06:46:44;;;;;;;18.85;11.23;;;;;;;1.69;83.72;66965.84;5039879;28;20142;-86
2022/03/01 06:49:10;;;;;;;19.33;12.38;;;;;;;1.72;84.61;66971.84;5035129;28;20037;-85
2022/03/01 06:51:37;;;;;;;19.23;10.25;;;;;;;1.74;81.95;66974.09;5063265;28;20100;-85
2022/03/01 06:54:02;;;;;;;17.75;11.40;;;;;;;1.80;82.01;66978.22;5040032;28;22135;-85
2022/03/01 06:56:28;;;;;;;14.55;8.98;;;;;;;1.81;81.65;66979.34;5055760;28;20102;-87
2022/03/01 06:58:54;;;;;;;17.10;10.70;;;;;;;1.82;82.22;66985.72;5042347;28;20045;-86
2022/03/01 07:01:20;;;;;;;13.60;10.05;;;;;;;1.85;81.58;66988.56;5047847;28;20037;-88
2022/03/01 07:03:46;;;;;;;16.58;11.63;;;;;;;1.89;82.53;66987.81;5069038;28;20051;-84
2022/03/01 07:06:12;;;;;;;16.42;11.48;;;;;;;1.85;82.96;66986.50;5059670;28;20053;-84
2022/03/01 07:08:37;;;;;;;20.00;11.48;;;;;;;1.86;83.41;66987.03;5039282;28;20029;-86
2022/03/01 07:11:09;;;;;;;17.20;10.68;;;;;;;1.88;82.60;66987.25;5052804;28;20099;-86
2022/03/01 07:13:34;;;;;;;17.58;12.13;;;;;;;1.86;83.75;66990.22;5069973;28;20051;-85
2022/03/01 07:16:03;;;;;;;19.05;12.00;;;;;;;1.87;82.82;66986.13;5038647;28;20053;-86
2022/03/01 07:18:29;;;;;;;15.68;11.40;;;;;;;1.89;82.59;66983.13;5059014;28;20072;-91
2022/03/01 07:20:56;;;;;;;19.75;11.70;;;;;;;1.92;83.39;66991.75;5042424;28;20055;-85
2022/03/01 07:23:22;;;;;;;15.05;9.73;;;;;;;1.88;80.91;66989.88;5043089;28;20131;-85
2022/03/01 07:26:01;;;;;;;18.10;10.93;;;;;;;1.92;82.73;66991.19;5065855;28;20592;-87
2022/03/01 07:28:27;;;;;;;18.35;10.70;;;;;;;1.88;82.57;66987.25;5045981;28;20103;-87
2022/03/01 07:30:56;;;;;;;17.75;10.63;;;;;;;1.88;83.72;66986.69;5016245;28;20128;-88
2022/03/01 07:33:21;;;;;;;18.50;11.77;;;;;;;1.93;84.15;66995.50;5032059;28;20044;-87
2022/03/01 07:35:46;;;;;;;16.67;10.68;;;;;;;1.96;83.54;66995.69;5032390;28;20039;-86
2022/03/01 07:38:12;;;;;;;15.75;10.60;;;;;;;2.03;82.62;67004.13;5038114;28;20111;-88
2022/03/01 07:40:37;;;;;;;16.88;10.55;;;;;;;2.10;82.32;67013.50;5035465;28;20525;-87
2022/03/01 07:43:03;;;;;;;20.48;12.15;;;;;;;2.18;82.82;67022.53;5035369;28;20033;-87
2022/03/01 07:45:29;;;;;;;18.67;11.98;;;;;;;2.28;82.64;67033.81;5040003;28;20049;-87
2022/03/01 07:47:55;;;;;;;15.77;11.88;;;;;;;2.36;81.36;67045.44;4992927;28;20048;-86
2022/03/01 07:50:22;;;;;;;18.67;11.90;;;;;;;2.56;80.72;67066.84;5034046;28;20037;-87
2022/03/01 07:52:47;;;;;;;16.95;10.75;;;;;;;2.70;79.91;67072.13;5025222;28;20041;-87
2022/03/01 07:55:14;;;;;;;17.85;10.90;;;;;;;2.88;78.90;67097.66;5019112;28;20105;-89
2022/03/01 07:57:39;;;;;;;16.15;10.85;;;;;;;;;;5031776;28;20090;-88
2022/03/01 08:00:09;;;;;;;16.85;10.55;;;;;;;3.10;76.58;67121.34;5039976;28;20053;-88
2022/03/01 08:02:39;;;;;;;19.65;10.88;;;;;;;3.15;76.02;67126.97;5052864;28;20628;-88
2022/03/01 08:05:14;;;;;;;15.80;10.43;;;;;;;3.23;77.20;67140.69;5041801;28;20049;-88
2022/03/01 08:07:41;;;;;;;14.32;8.63;;;;;;;3.30;75.19;67143.31;5032955;28;20143;-89
2022/03/01 08:10:07;;;;;;;14.88;9.88;;;;;;;;;;5036196;28;20127;-88
2022/03/01 08:12:32;;;;;;;17.42;10.30;;;;;;;3.46;75.65;67160.81;5046762;28;20103;-87
2022/03/01 08:14:59;;;;;;;17.90;10.65;;;;;;;3.57;74.50;67173.78;5030238;28;20539;-87
2022/03/01 08:17:24;;;;;;;16.50;10.82;;;;;;;3.69;73.45;67186.75;5028016;28;20044;-88
2022/03/01 08:19:50;;;;;;;16.52;9.82;;;;;;;3.74;72.71;67192.41;5042139;28;20037;-88
2022/03/01 08:22:19;;;;;;;17.42;10.68;;;;;;;3.75;73.28;67198.22;5041201;28;20576;-89
2022/03/01 08:24:45;;;;;;;17.75;11.13;;;;;;;3.73;73.85;67190.69;5042390;28;20048;-88
2022/03/01 08:27:17;;;;;;;17.30;12.43;;;;;;;3.75;74.19;67198.78;5043434;28;20045;-88
2022/03/01 08:29:43;;;;;;;17.08;10.98;;;;;;;3.80;73.56;67199.16;5060133;28;20045;-88
2022/03/01 08:32:09;;;;;;;14.98;10.30;;;;;;;3.83;73.20;67202.56;5035608;28;20093;-87
2022/03/01 08:34:34;;;;;;;15.95;9.48;;;;;;;3.96;73.25;67211.38;5043271;28;20120;-89
2022/03/01 08:37:00;;;;;;;18.30;10.07;;;;;;;4.13;72.62;67237.91;5033102;28;20486;-88
2022/03/01 08:39:25;;;;;;;20.27;10.23;;;;;;;;;;5058643;28;20052;-88
2022/03/01 08:41:54;;;;;;;17.73;11.98;;;;;;;4.33;72.37;67256.72;5042629;28;20078;-88
2022/03/01 08:44:23;;;;;;;19.83;10.18;;;;;;;;;;5040674;28;20055;-90
2022/03/01 08:46:49;;;;;;;16.95;9.60;;;;;;;;;;5035151;28;20641;-89
2022/03/01 08:49:14;;;;;;;15.70;9.80;;;;;;;;;;5045944;28;20124;-89
2022/03/01 08:51:42;;;;;;;15.27;10.27;;;;;;;4.35;71.29;67259.00;5028951;28;20052;-86
2022/03/01 08:54:08;;;;;;;15.07;9.40;;;;;;;4.34;69.78;67260.47;5055151;28;20443;-89
2022/03/01 08:56:36;;;;;;;18.60;9.30;;;;;;;4.33;69.92;67252.00;5045388;28;20109;-89
2022/03/01 08:59:05;;;;;;;16.38;11.10;;;;;;;4.37;72.91;67261.78;5056339;28;20449;-87
2022/03/01 09:01:31;;;;;;;;;;;;;;;4.37;69.77;67261.22;5056175;28;20056;-87
2022/03/01 09:03:59;;;;;;;14.80;9.85;;;;;;;4.32;71.92;67258.22;5045504;28;19917;-88
2022/03/01 09:06:25;;;;;;;16.60;9.40;;;;;;;4.27;69.71;67245.81;5055282;28;20055;-88
2022/03/01 09:08:50;;;;;;;15.75;9.75;;;;;;;4.35;72.05;67261.63;5047528;28;20108;-87
2022/03/01 09:11:17;;;;;;;16.80;10.95;;;;;;;4.47;72.62;67267.81;5058234;28;20049;-89
2022/03/01 09:13:44;;;;;;;17.17;10.35;;;;;;;4.53;71.15;67279.28;5059029;28;20047;-88
2022/03/01 09:16:16;;;;;;;16.88;11.50;;;;;;;4.51;72.67;67280.22;5017598;28;20269;-89
2022/03/01 09:18:42;;;;;;;17.25;11.23;;;;;;;;;;5011656;28;20033;-88
2022/03/01 09:21:12;;;;;;;18.40;10.68;;;;;;;4.48;71.29;67278.91;5003431;28;20536;-88
2022/03/01 09:23:37;;;;;;;17.08;11.65;;;;;;;4.57;72.62;67286.44;4997085;28;20049;-89
2022/03/01 09:26:03;;;;;;;15.60;10.55;;;;;;;4.60;70.14;67289.25;4987938;28;20038;-89
2022/03/01 09:28:34;;;;;;;17.48;11.52;;;;;;;;;;5005541;28;20476;-89
2022/03/01 09:31:01;;;;;;;17.67;11.02;;;;;;;4.71;72.36;67304.31;4979068;28;20506;-88
2022/03/01 09:49:39;;;;;;;16.50;11.05;;;;;;;6.12;67.10;67455.00;5030275;27;20401;-92
2022/03/01 09:52:05;;;;;;;16.63;10.98;;;;;;;5.92;67.08;67432.38;5037344;28;20041;-92
2022/03/01 09:54:30;;;;;;;17.08;10.70;;;;;;;5.80;67.93;67419.94;5041855;28;20466;-91
2022/03/01 09:56:56;;;;;;;17.30;10.35;;;;;;;;;;5031283;28;20029;-90
2022/03/01 09:59:21;;;;;;;16.80;11.55;;;;;;;5.66;69.32;67407.31;5040922;28;20128;-91
2022/03/01 10:01:50;;;;;;;18.80;10.20;;;;;;;;;;5023019;28;20103;-90
2022/03/01 10:04:15;;;;;;;16.65;10.48;;;;;;;;;;5046496;28;20037;-91
2022/03/01 10:06:42;;;;;;;17.88;10.20;;;;;;;;;;5064090;28;20037;-91
2022/03/01 10:09:16;;;;;;;16.63;10.27;;;;;;;5.63;68.15;67401.28;5040048;28;20612;-90
2022/03/01 10:11:41;;;;;;;18.80;10.00;;;;;;;5.64;63.78;67402.41;5043995;28;20047;-90
2022/03/01 10:14:07;;;;;;;18.83;10.25;;;;;;;5.72;64.76;67412.97;5043197;28;20106;-92
2022/03/01 10:16:38;;;;;;;18.63;9.23;;;;;;;5.75;66.58;67419.00;5043623;28;20064;-89
2022/03/01 10:19:08;;;;;;;15.55;9.57;;;;;;;;;;5035986;28;20057;-90
2022/03/01 10:21:33;;;;;;;16.45;11.52;;;;;;;5.70;65.39;67408.06;5028859;28;20093;-90
2022/03/01 10:23:59;;;;;;;16.90;11.20;;;;;;;5.69;65.83;67406.94;5036208;28;20799;-91
2022/03/01 10:26:30;;;;;;;16.02;10.32;;;;;;;5.73;65.40;67412.03;5045156;28;20506;-90
2022/03/01 10:28:57;;;;;;;18.63;9.48;;;;;;;5.76;63.46;67417.50;5041970;28;20045;-90
2022/03/01 10:31:26;;;;;;;17.83;10.07;;;;;;;5.77;64.18;67416.53;5033538;28;20045;-88
2022/03/01 10:33:52;;;;;;;16.48;9.68;;;;;;;;;;5026275;28;20033;-90
2022/03/01 10:36:22;;;;;;;15.77;9.13;;;;;;;5.82;63.91;67421.63;5045896;28;20037;-91
2022/03/01 10:38:56;;;;;;;16.88;10.15;;;;;;;6.04;64.10;67441.25;5045039;28;20120;-90
2022/03/01 10:41:27;;;;;;;16.33;10.82;;;;;;;6.16;65.83;67462.16;5023213;28;20068;-89
2022/03/01 10:43:59;;;;;;;18.88;9.80;;;;;;;;;;5025091;28;20053;-89
2022/03/01 10:46:29;;;;;;;15.93;10.43;;;;;;;6.05;64.40;67447.66;5076484;28;20068;-89
2022/03/01 10:49:08;;;;;;;19.30;9.25;;;;;;;6.03;64.00;67450.66;5067674;28;20041;-89
2022/03/01 10:51:35;;;;;;;16.90;10.93;;;;;;;6.00;63.19;67442.00;5027117;28;20045;-89
2022/03/01 10:54:01;;;;;;;16.60;9.25;;;;;;;6.02;64.09;67444.25;5044515;28;20034;-89
2022/03/01 10:56:36;;;;;;;16.33;9.73;;;;;;;;;;5023137;28;20041;-90
2022/03/01 10:59:05;;;;;;;16.27;11.38;;;;;;;6.13;66.47;67456.13;5028991;28;20041;-90
2022/03/01 11:01:31;;;;;;;16.58;10.02;;;;;;;6.14;63.95;67456.69;5036531;28;20132;-90
2022/03/01 11:03:56;;;;;;;20.38;11.00;;;;;;;6.27;64.97;67474.03;5035584;28;20482;-89
2022/03/01 11:06:23;;;;;;;20.50;10.10;;;;;;;6.60;67.17;67508.16;4995274;28;20042;-89
2022/03/01 11:08:50;;;;;;;17.27;9.85;;;;;;;6.59;63.01;67506.44;5009545;28;20045;-90
2022/03/01 11:11:15;;;;;;;17.85;10.73;;;;;;;;;;5022635;28;20045;-89
2022/03/01 11:13:45;;;;;;;17.20;11.10;;;;;;;6.77;63.79;67521.53;5028818;28;20038;-90
2022/03/01 11:16:29;;;;;;;;;;;;;;;6.84;62.53;67534.72;5027480;28;20045;-89
2022/03/01 11:19:05;;;;;;;18.83;10.88;;;;;;;7.01;66.28;67556.03;5031197;28;19913;-89
2022/03/01 11:21:33;;;;;;;17.23;10.30;;;;;;;;;;5030652;28;20048;-90
2022/03/01 11:23:58;;;;;;;17.60;11.38;;;;;;;;;;5021921;28;20042;-89
2022/03/01 11:26:33;;;;;;;18.42;10.30;;;;;;;;;;5062145;28;20060;-91
2022/03/01 11:28:59;;;;;;;17.17;11.55;;;;;;;7.38;60.53;67594.13;5044749;28;20033;-89
2022/03/01 11:31:29;;;;;;;16.17;9.93;;;;;;;7.50;59.50;67609.78;5043255;28;20068;-89
2022/03/01 11:34:07;;;;;;;15.55;9.93;;;;;;;7.52;59.43;67604.69;5034848;28;20044;-91
2022/03/01 11:36:33;;;;;;;15.55;9.55;;;;;;;;;;5050294;28;20057;-90
2022/03/01 11:39:12;;;;;;;15.35;10.70;;;;;;;;;;5040814;28;20051;-90
2022/03/01 11:41:46;;;;;;;16.95;11.35;;;;;;;8.09;63.07;67673.38;5018209;28;20038;-89
2022/03/01 11:44:12;;;;;;;18.08;10.75;;;;;;;;;;5003395;28;20121;-87
2022/03/01 11:46:42;;;;;;;17.35;11.68;;;;;;;8.15;61.62;67679.59;5018682;28;20041;-89
2022/03/01 11:49:08;;;;;;;15.43;9.65;;;;;;;;;;5030413;28;20511;-89
2022/03/01 11:51:42;;;;;;;16.35;9.77;;;;;;;8.21;58.40;67685.84;5035939;28;20045;-88
2022/03/01 11:54:12;;;;;;;15.95;10.50;;;;;;;;;;5002503;28;20061;-87
2022/03/01 11:56:38;;;;;;;16.52;10.68;;;;;;;;;;4993399;28;20038;-89
2022/03/01 11:59:10;;;;;;;15.35;10.70;;;;;;;8.46;59.68;67708.28;5029980;28;20071;-87
2022/03/01 12:01:36;;;;;;;15.98;9.93;;;;;;;8.47;57.91;67714.75;5006915;28;20046;-90
2022/03/01 12:04:03;;;;;;;17.63;9.93;;;;;;;;;;4990633;28;20041;-88
2022/03/01 12:06:30;;;;;;;15.40;10.63;;;;;;;;;;5014638;28;20049;-88
2022/03/01 12:08:58;;;;;;;15.45;9.60;;;;;;;8.73;54.46;67738.31;5024846;28;20033;-88